Hlavní strana
METAR-TAF:

METAR-TAF

Letiště :

Mezinárodní letiště Hongkong

Hongkong, Čína

zeměpisná šířka: 22-19N, zeměpisná délka: 113-55E, výška: 9 m

Aktuální stav počasí

Zpráva byla vytvořena před 19 minutami, v 05:00 UTC
Jihozápadní vítr 14 kt
Teplota 33°C
Vlhkost vzduchu 67%
Tlak 1005 hPa
Viditelnost 10 km a více
Skoro jasno ve výšce 1800 ft
Polojasno ve výšce 2500 ft

METAR: VHHH 200500Z 23014KT 9999 FEW018 SCT025 33/26 Q1005 NOSIG

Čas: 13:19 (05:19 UTC)

Předpověď počasí

Zpráva byla vytvořena před 6 hodinami a 19 minutami, v 23:00 UTC
Předpověď platná od 20 v 00 UTC do 21 v 06 UTC
Jihozápadní vítr 10 kt
Viditelnost 10 km a více
Skoro jasno ve výšce 1500 ft
Dočasný
od 20 v 04 UTC do 20 v 06 UTC
Viditelnost: 4000 m
dešťové přeháňky
Dočasný
od 21 v 00 UTC do 21 v 06 UTC
Viditelnost: 3500 m
dešťové přeháňky

TAF: VHHH 192300Z 2000/2106 22010KT 9999 FEW015 TX34/2006Z TX33/2106Z TN28/2022Z TEMPO 2004/2006 4000 SHRA TEMPO 2100/2106 3500 SHRA

Stav a předpovědi počasí z více než 4 000 letišť (zprávy METAR a TAF).

Červené a žluté tečky na mapě představují dostupné meteorologické stanice.

Když kurzor umístíte na tečku, zobrazí se název stanice.

Pak kliknutím zobrazíte stav a předpověď počasí.

Chcete-li změnit mapu, kliknutím na zelené tlačítko se znaménkem +mapu přiblížíte, kliknutím na zelené tlačítko se znaménkem – mapu oddálíte a kliknutím na zelené šipky přejdete na sousední mapy.


METAR-TAF: